Strona główna
METAR-TAF:

METAR-TAF

Lotnisko :

Port lotniczy Dakar

Dakar, Senegal

Szerokość geograficzna: 14-44N, Długość geograficzna: 017-30W, wysokość: 27 m

Aktualna obserwacja pogody

Raport powstał 1 godzina i 17 minut temu, godzina 17:00 UTC
Wiatr 4 kt od zachód
Temperatura 27°C
Wilgotność 74%
Ciśnienie 1012 hPa
Widzialność: 9000 m

METAR: GOOY 181700Z 28004KT 9000 NSC 27/22 Q1012

czas: 18:17 (18:17 UTC)

Prognoza

Raport powstał 47 minut temu, godzina 17:30 UTC
Prognoza ważna od 18 godzina 18 UTC do 19 godzina 24 UTC
Wiatr 8 kt od zachód

TAF: GOOY 181730Z 1818/1924 28008KT 8000NSC

Obserwacja i prognoza pogody dla ponad 4000 lotnisk (raport METAR i TAF).

Dostępne stacje oznaczono żółtymi i czerwonymi punktami na mapie.

Najedź kursorem aby zobaczyć nazwę stacji.

Kliknij aby zobaczyć obserwacje i prognozy pogody.

Aby zmienić mapę: kliknij na zielony przycisk z czarnym krzyżykiem, aby powiększyć; na zielony przycisk z myślnikiem, aby pomniejszyć; na zielone strzałki, aby przejść do map sąsiednich.


METAR-TAF: